sensor_id;sensor_type;location;lat;lon;timestamp;temperature;humidity
7720;DHT22;3902;49.474;8.616;2023-10-08T00:01:03;17.30;99.90
7720;DHT22;3902;49.474;8.616;2023-10-08T00:03:29;17.30;99.90
7720;DHT22;3902;49.474;8.616;2023-10-08T00:05:55;17.30;99.90
7720;DHT22;3902;49.474;8.616;2023-10-08T00:08:21;17.30;99.90
7720;DHT22;3902;49.474;8.616;2023-10-08T00:10:47;17.30;99.90
7720;DHT22;3902;49.474;8.616;2023-10-08T00:13:13;17.30;99.90
7720;DHT22;3902;49.474;8.616;2023-10-08T00:15:41;17.30;99.90
7720;DHT22;3902;49.474;8.616;2023-10-08T00:18:16;17.30;99.90
7720;DHT22;3902;49.474;8.616;2023-10-08T00:20:43;17.20;99.90
7720;DHT22;3902;49.474;8.616;2023-10-08T00:23:14;17.20;99.90
7720;DHT22;3902;49.474;8.616;2023-10-08T00:25:42;17.20;99.90
7720;DHT22;3902;49.474;8.616;2023-10-08T00:28:12;17.20;99.90
7720;DHT22;3902;49.474;8.616;2023-10-08T00:30:40;17.20;99.90
7720;DHT22;3902;49.474;8.616;2023-10-08T00:33:07;17.20;99.90
7720;DHT22;3902;49.474;8.616;2023-10-08T00:35:40;17.20;99.90
7720;DHT22;3902;49.474;8.616;2023-10-08T00:38:07;17.20;99.90
7720;DHT22;3902;49.474;8.616;2023-10-08T00:40:42;17.20;99.90
7720;DHT22;3902;49.474;8.616;2023-10-08T00:43:28;17.20;99.90
7720;DHT22;3902;49.474;8.616;2023-10-08T00:45:54;17.20;99.90
7720;DHT22;3902;49.474;8.616;2023-10-08T00:48:20;17.10;99.90
7720;DHT22;3902;49.474;8.616;2023-10-08T00:50:48;17.10;99.90
7720;DHT22;3902;49.474;8.616;2023-10-08T00:53:13;17.10;99.90
7720;DHT22;3902;49.474;8.616;2023-10-08T00:55:49;17.10;99.90
7720;DHT22;3902;49.474;8.616;2023-10-08T00:58:30;17.10;99.90
7720;DHT22;3902;49.474;8.616;2023-10-08T01:00:59;17.00;99.90
7720;DHT22;3902;49.474;8.616;2023-10-08T01:03:28;17.00;99.90
7720;DHT22;3902;49.474;8.616;2023-10-08T01:05:54;17.00;99.90
7720;DHT22;3902;49.474;8.616;2023-10-08T01:08:22;17.00;99.90
7720;DHT22;3902;49.474;8.616;2023-10-08T01:11:20;17.00;99.90
7720;DHT22;3902;49.474;8.616;2023-10-08T01:14:12;16.90;99.90
7720;DHT22;3902;49.474;8.616;2023-10-08T01:16:38;17.00;99.90
7720;DHT22;3902;49.474;8.616;2023-10-08T01:19:04;16.90;99.90
7720;DHT22;3902;49.474;8.616;2023-10-08T01:21:37;16.90;99.90
7720;DHT22;3902;49.474;8.616;2023-10-08T01:24:05;16.90;99.90
7720;DHT22;3902;49.474;8.616;2023-10-08T01:26:35;16.80;99.90
7720;DHT22;3902;49.474;8.616;2023-10-08T01:29:08;16.80;99.90
7720;DHT22;3902;49.474;8.616;2023-10-08T01:31:35;16.80;99.90
7720;DHT22;3902;49.474;8.616;2023-10-08T01:34:02;16.80;99.90
7720;DHT22;3902;49.474;8.616;2023-10-08T01:36:30;16.70;99.90
7720;DHT22;3902;49.474;8.616;2023-10-08T01:38:56;16.70;99.90
7720;DHT22;3902;49.474;8.616;2023-10-08T01:41:22;16.70;99.90
7720;DHT22;3902;49.474;8.616;2023-10-08T01:43:56;16.70;99.90
7720;DHT22;3902;49.474;8.616;2023-10-08T01:46:24;16.70;99.90
7720;DHT22;3902;49.474;8.616;2023-10-08T01:48:51;16.70;99.90
7720;DHT22;3902;49.474;8.616;2023-10-08T01:51:21;16.60;99.90
7720;DHT22;3902;49.474;8.616;2023-10-08T01:54:03;16.60;99.90
7720;DHT22;3902;49.474;8.616;2023-10-08T01:56:29;16.60;99.90
7720;DHT22;3902;49.474;8.616;2023-10-08T01:58:55;16.60;99.90
7720;DHT22;3902;49.474;8.616;2023-10-08T02:01:21;16.60;99.90
7720;DHT22;3902;49.474;8.616;2023-10-08T02:03:46;16.60;99.90
7720;DHT22;3902;49.474;8.616;2023-10-08T02:06:12;16.60;99.90
7720;DHT22;3902;49.474;8.616;2023-10-08T02:08:38;16.60;99.90
7720;DHT22;3902;49.474;8.616;2023-10-08T02:11:03;16.50;99.90
7720;DHT22;3902;49.474;8.616;2023-10-08T02:13:29;16.60;99.90
7720;DHT22;3902;49.474;8.616;2023-10-08T02:15:55;16.50;99.90
7720;DHT22;3902;49.474;8.616;2023-10-08T02:18:21;16.50;99.90
7720;DHT22;3902;49.474;8.616;2023-10-08T02:20:51;16.50;99.90
7720;DHT22;3902;49.474;8.616;2023-10-08T02:23:17;16.50;99.90
7720;DHT22;3902;49.474;8.616;2023-10-08T02:25:43;16.40;99.90
7720;DHT22;3902;49.474;8.616;2023-10-08T02:28:10;16.40;99.90
7720;DHT22;3902;49.474;8.616;2023-10-08T02:30:40;16.40;99.90
7720;DHT22;3902;49.474;8.616;2023-10-08T02:33:06;16.40;99.90
7720;DHT22;3902;49.474;8.616;2023-10-08T02:35:42;16.40;99.90
7720;DHT22;3902;49.474;8.616;2023-10-08T02:38:12;16.30;99.90
7720;DHT22;3902;49.474;8.616;2023-10-08T02:40:38;16.40;99.90
7720;DHT22;3902;49.474;8.616;2023-10-08T02:43:10;16.30;99.90
7720;DHT22;3902;49.474;8.616;2023-10-08T02:45:37;16.30;99.90
7720;DHT22;3902;49.474;8.616;2023-10-08T02:48:07;16.30;99.90
7720;DHT22;3902;49.474;8.616;2023-10-08T02:50:39;16.30;99.90
7720;DHT22;3902;49.474;8.616;2023-10-08T02:53:05;16.30;99.90
7720;DHT22;3902;49.474;8.616;2023-10-08T02:55:37;16.30;99.90
7720;DHT22;3902;49.474;8.616;2023-10-08T02:58:07;16.30;99.90
7720;DHT22;3902;49.474;8.616;2023-10-08T03:00:39;16.30;99.90
7720;DHT22;3902;49.474;8.616;2023-10-08T03:03:06;16.20;99.90
7720;DHT22;3902;49.474;8.616;2023-10-08T03:05:50;16.20;99.90
7720;DHT22;3902;49.474;8.616;2023-10-08T03:08:17;16.20;99.90
7720;DHT22;3902;49.474;8.616;2023-10-08T03:10:53;16.20;99.90
7720;DHT22;3902;49.474;8.616;2023-10-08T03:13:27;16.20;99.90
7720;DHT22;3902;49.474;8.616;2023-10-08T03:15:53;16.20;99.90
7720;DHT22;3902;49.474;8.616;2023-10-08T03:18:28;16.20;99.90
7720;DHT22;3902;49.474;8.616;2023-10-08T03:21:15;16.20;99.90
7720;DHT22;3902;49.474;8.616;2023-10-08T03:23:47;16.20;99.90
7720;DHT22;3902;49.474;8.616;2023-10-08T03:26:14;16.20;99.90
7720;DHT22;3902;49.474;8.616;2023-10-08T03:29:01;16.10;99.90
7720;DHT22;3902;49.474;8.616;2023-10-08T03:31:31;16.10;99.90
7720;DHT22;3902;49.474;8.616;2023-10-08T03:34:12;16.10;99.90
7720;DHT22;3902;49.474;8.616;2023-10-08T03:36:39;16.10;99.90
7720;DHT22;3902;49.474;8.616;2023-10-08T03:39:10;16.10;99.90
7720;DHT22;3902;49.474;8.616;2023-10-08T03:41:42;16.10;99.90
7720;DHT22;3902;49.474;8.616;2023-10-08T03:44:08;16.10;99.90
7720;DHT22;3902;49.474;8.616;2023-10-08T03:46:42;16.00;99.90
7720;DHT22;3902;49.474;8.616;2023-10-08T03:49:14;16.00;99.90
7720;DHT22;3902;49.474;8.616;2023-10-08T03:51:46;16.00;99.90
7720;DHT22;3902;49.474;8.616;2023-10-08T03:54:12;16.00;99.90
7720;DHT22;3902;49.474;8.616;2023-10-08T03:56:41;15.90;99.90
7720;DHT22;3902;49.474;8.616;2023-10-08T03:59:12;15.90;99.90
7720;DHT22;3902;49.474;8.616;2023-10-08T04:01:46;16.00;99.90
7720;DHT22;3902;49.474;8.616;2023-10-08T04:04:14;16.00;99.90
7720;DHT22;3902;49.474;8.616;2023-10-08T04:06:41;16.00;99.90
7720;DHT22;3902;49.474;8.616;2023-10-08T04:09:15;15.90;99.90
7720;DHT22;3902;49.474;8.616;2023-10-08T04:11:46;15.90;99.90
7720;DHT22;3902;49.474;8.616;2023-10-08T04:14:23;15.90;99.90
7720;DHT22;3902;49.474;8.616;2023-10-08T04:16:49;15.90;99.90
7720;DHT22;3902;49.474;8.616;2023-10-08T04:19:19;15.90;99.90
7720;DHT22;3902;49.474;8.616;2023-10-08T04:21:46;15.90;99.90
7720;DHT22;3902;49.474;8.616;2023-10-08T04:24:23;15.90;99.90
7720;DHT22;3902;49.474;8.616;2023-10-08T04:26:53;15.90;99.90
7720;DHT22;3902;49.474;8.616;2023-10-08T04:29:21;15.90;99.90
7720;DHT22;3902;49.474;8.616;2023-10-08T04:31:48;15.80;99.90
7720;DHT22;3902;49.474;8.616;2023-10-08T04:34:19;15.70;99.90
7720;DHT22;3902;49.474;8.616;2023-10-08T04:36:49;15.80;99.90
7720;DHT22;3902;49.474;8.616;2023-10-08T04:39:21;15.70;99.90
7720;DHT22;3902;49.474;8.616;2023-10-08T04:41:48;15.70;99.90
7720;DHT22;3902;49.474;8.616;2023-10-08T04:44:19;15.70;99.90
7720;DHT22;3902;49.474;8.616;2023-10-08T04:46:47;15.70;99.90
7720;DHT22;3902;49.474;8.616;2023-10-08T04:49:14;15.70;99.90
7720;DHT22;3902;49.474;8.616;2023-10-08T04:52:06;15.70;99.90
7720;DHT22;3902;49.474;8.616;2023-10-08T04:54:39;15.60;99.90
7720;DHT22;3902;49.474;8.616;2023-10-08T04:57:07;15.70;99.90
7720;DHT22;3902;49.474;8.616;2023-10-08T04:59:43;15.70;99.90
7720;DHT22;3902;49.474;8.616;2023-10-08T05:02:09;15.70;99.90
7720;DHT22;3902;49.474;8.616;2023-10-08T05:04:54;15.70;99.90
7720;DHT22;3902;49.474;8.616;2023-10-08T05:07:42;15.70;99.90
7720;DHT22;3902;49.474;8.616;2023-10-08T05:10:11;15.60;99.90
7720;DHT22;3902;49.474;8.616;2023-10-08T05:12:57;15.60;99.90
7720;DHT22;3902;49.474;8.616;2023-10-08T05:15:30;15.70;99.90
7720;DHT22;3902;49.474;8.616;2023-10-08T05:18:03;15.70;99.90
7720;DHT22;3902;49.474;8.616;2023-10-08T05:20:37;15.60;99.90
7720;DHT22;3902;49.474;8.616;2023-10-08T05:23:16;15.60;99.90
7720;DHT22;3902;49.474;8.616;2023-10-08T05:25:56;15.70;99.90
7720;DHT22;3902;49.474;8.616;2023-10-08T05:28:38;15.60;99.90
7720;DHT22;3902;49.474;8.616;2023-10-08T05:31:30;15.70;99.90
7720;DHT22;3902;49.474;8.616;2023-10-08T05:34:15;15.60;99.90
7720;DHT22;3902;49.474;8.616;2023-10-08T05:36:48;15.70;99.90
7720;DHT22;3902;49.474;8.616;2023-10-08T05:39:29;15.60;99.90
7720;DHT22;3902;49.474;8.616;2023-10-08T05:41:58;15.70;99.90
7720;DHT22;3902;49.474;8.616;2023-10-08T05:44:41;15.70;99.90
7720;DHT22;3902;49.474;8.616;2023-10-08T05:47:14;15.70;99.90
7720;DHT22;3902;49.474;8.616;2023-10-08T05:50:09;15.70;99.90
7720;DHT22;3902;49.474;8.616;2023-10-08T05:52:44;15.70;99.90
7720;DHT22;3902;49.474;8.616;2023-10-08T05:55:21;15.70;99.90
7720;DHT22;3902;49.474;8.616;2023-10-08T05:58:04;15.70;99.90
7720;DHT22;3902;49.474;8.616;2023-10-08T06:00:47;15.70;99.90
7720;DHT22;3902;49.474;8.616;2023-10-08T06:03:16;15.70;99.90
7720;DHT22;3902;49.474;8.616;2023-10-08T06:06:02;15.70;99.90
7720;DHT22;3902;49.474;8.616;2023-10-08T06:08:37;15.70;99.90
7720;DHT22;3902;49.474;8.616;2023-10-08T06:11:38;15.80;99.90
7720;DHT22;3902;49.474;8.616;2023-10-08T06:14:11;15.80;99.90
7720;DHT22;3902;49.474;8.616;2023-10-08T06:16:42;15.80;99.90
7720;DHT22;3902;49.474;8.616;2023-10-08T06:19:10;15.80;99.90
7720;DHT22;3902;49.474;8.616;2023-10-08T06:21:37;15.80;99.90
7720;DHT22;3902;49.474;8.616;2023-10-08T06:24:04;15.80;99.90
7720;DHT22;3902;49.474;8.616;2023-10-08T06:26:38;15.80;99.90
7720;DHT22;3902;49.474;8.616;2023-10-08T06:29:14;15.80;99.90
7720;DHT22;3902;49.474;8.616;2023-10-08T06:31:56;15.90;99.90
7720;DHT22;3902;49.474;8.616;2023-10-08T06:34:22;15.90;99.90
7720;DHT22;3902;49.474;8.616;2023-10-08T06:36:50;15.80;99.90
7720;DHT22;3902;49.474;8.616;2023-10-08T06:39:23;15.80;99.90
7720;DHT22;3902;49.474;8.616;2023-10-08T06:41:59;15.90;99.90
7720;DHT22;3902;49.474;8.616;2023-10-08T06:44:25;16.00;99.90
7720;DHT22;3902;49.474;8.616;2023-10-08T06:46:51;15.90;99.90
7720;DHT22;3902;49.474;8.616;2023-10-08T06:49:22;16.00;99.90
7720;DHT22;3902;49.474;8.616;2023-10-08T06:51:51;16.00;99.90
7720;DHT22;3902;49.474;8.616;2023-10-08T06:54:18;16.10;99.90
7720;DHT22;3902;49.474;8.616;2023-10-08T06:56:44;16.10;99.90
7720;DHT22;3902;49.474;8.616;2023-10-08T06:59:17;16.10;99.90
7720;DHT22;3902;49.474;8.616;2023-10-08T07:01:42;16.10;99.90
7720;DHT22;3902;49.474;8.616;2023-10-08T07:04:11;16.10;99.90
7720;DHT22;3902;49.474;8.616;2023-10-08T07:06:41;16.10;99.90
7720;DHT22;3902;49.474;8.616;2023-10-08T07:09:09;16.10;99.90
7720;DHT22;3902;49.474;8.616;2023-10-08T07:11:49;16.10;99.90
7720;DHT22;3902;49.474;8.616;2023-10-08T07:14:15;16.20;99.90
7720;DHT22;3902;49.474;8.616;2023-10-08T07:16:40;16.20;99.90
7720;DHT22;3902;49.474;8.616;2023-10-08T07:19:07;16.30;99.90
7720;DHT22;3902;49.474;8.616;2023-10-08T07:21:41;16.30;99.90
7720;DHT22;3902;49.474;8.616;2023-10-08T07:24:13;16.30;99.90
7720;DHT22;3902;49.474;8.616;2023-10-08T07:26:43;16.40;99.90
7720;DHT22;3902;49.474;8.616;2023-10-08T07:29:13;16.40;99.90
7720;DHT22;3902;49.474;8.616;2023-10-08T07:31:43;16.40;99.90
7720;DHT22;3902;49.474;8.616;2023-10-08T07:34:14;16.40;99.90
7720;DHT22;3902;49.474;8.616;2023-10-08T07:36:48;16.50;99.90
7720;DHT22;3902;49.474;8.616;2023-10-08T07:39:18;16.50;99.90
7720;DHT22;3902;49.474;8.616;2023-10-08T07:42:05;16.50;99.90
7720;DHT22;3902;49.474;8.616;2023-10-08T07:44:31;16.60;99.90
7720;DHT22;3902;49.474;8.616;2023-10-08T07:46:57;16.60;99.90
7720;DHT22;3902;49.474;8.616;2023-10-08T07:49:24;16.70;99.90
7720;DHT22;3902;49.474;8.616;2023-10-08T07:51:51;16.70;99.90
7720;DHT22;3902;49.474;8.616;2023-10-08T07:54:20;16.80;99.90
7720;DHT22;3902;49.474;8.616;2023-10-08T07:56:47;16.80;99.90
7720;DHT22;3902;49.474;8.616;2023-10-08T07:59:14;16.80;99.90
7720;DHT22;3902;49.474;8.616;2023-10-08T08:01:42;16.90;99.90
7720;DHT22;3902;49.474;8.616;2023-10-08T08:04:11;16.90;99.90
7720;DHT22;3902;49.474;8.616;2023-10-08T08:06:47;17.00;99.90
7720;DHT22;3902;49.474;8.616;2023-10-08T08:09:15;17.00;99.90
7720;DHT22;3902;49.474;8.616;2023-10-08T08:11:44;17.10;99.90
7720;DHT22;3902;49.474;8.616;2023-10-08T08:14:12;17.10;99.90
7720;DHT22;3902;49.474;8.616;2023-10-08T08:16:42;17.20;99.90
7720;DHT22;3902;49.474;8.616;2023-10-08T08:19:11;17.30;99.90
7720;DHT22;3902;49.474;8.616;2023-10-08T08:21:38;17.30;99.90
7720;DHT22;3902;49.474;8.616;2023-10-08T08:24:13;17.40;99.90
7720;DHT22;3902;49.474;8.616;2023-10-08T08:26:40;17.50;99.90
7720;DHT22;3902;49.474;8.616;2023-10-08T08:29:11;17.50;99.90
7720;DHT22;3902;49.474;8.616;2023-10-08T08:31:40;17.60;99.90
7720;DHT22;3902;49.474;8.616;2023-10-08T08:34:11;17.60;99.90
7720;DHT22;3902;49.474;8.616;2023-10-08T08:36:43;17.60;99.90
7720;DHT22;3902;49.474;8.616;2023-10-08T08:39:12;17.60;99.90
7720;DHT22;3902;49.474;8.616;2023-10-08T08:41:58;17.60;99.90
7720;DHT22;3902;49.474;8.616;2023-10-08T08:44:27;17.70;99.90
7720;DHT22;3902;49.474;8.616;2023-10-08T08:46:58;17.70;99.90
7720;DHT22;3902;49.474;8.616;2023-10-08T08:49:24;17.70;99.90
7720;DHT22;3902;49.474;8.616;2023-10-08T08:51:52;17.70;99.90
7720;DHT22;3902;49.474;8.616;2023-10-08T08:54:20;17.70;99.90
7720;DHT22;3902;49.474;8.616;2023-10-08T08:56:46;17.70;99.90
7720;DHT22;3902;49.474;8.616;2023-10-08T08:59:13;17.70;99.90
7720;DHT22;3902;49.474;8.616;2023-10-08T09:01:40;17.80;99.90
7720;DHT22;3902;49.474;8.616;2023-10-08T09:04:07;17.80;99.90
7720;DHT22;3902;49.474;8.616;2023-10-08T09:06:34;17.80;99.90
7720;DHT22;3902;49.474;8.616;2023-10-08T09:09:03;17.80;99.90
7720;DHT22;3902;49.474;8.616;2023-10-08T09:11:47;17.80;99.90
7720;DHT22;3902;49.474;8.616;2023-10-08T09:14:19;17.80;99.90
7720;DHT22;3902;49.474;8.616;2023-10-08T09:16:45;17.90;99.90
7720;DHT22;3902;49.474;8.616;2023-10-08T09:19:12;17.90;99.90
7720;DHT22;3902;49.474;8.616;2023-10-08T09:22:28;17.90;99.90
7720;DHT22;3902;49.474;8.616;2023-10-08T09:24:33;17.90;99.90
7720;DHT22;3902;49.474;8.616;2023-10-08T09:27:00;17.90;99.90
7720;DHT22;3902;49.474;8.616;2023-10-08T09:29:27;17.90;99.90
7720;DHT22;3902;49.474;8.616;2023-10-08T09:31:57;17.90;99.90
7720;DHT22;3902;49.474;8.616;2023-10-08T09:34:30;18.00;99.90
7720;DHT22;3902;49.474;8.616;2023-10-08T09:36:57;18.00;99.90
7720;DHT22;3902;49.474;8.616;2023-10-08T09:39:23;18.00;99.90
7720;DHT22;3902;49.474;8.616;2023-10-08T09:41:56;18.00;99.90
7720;DHT22;3902;49.474;8.616;2023-10-08T09:44:24;18.10;99.90
7720;DHT22;3902;49.474;8.616;2023-10-08T09:47:09;18.20;99.90
7720;DHT22;3902;49.474;8.616;2023-10-08T09:50:04;18.20;99.90
7720;DHT22;3902;49.474;8.616;2023-10-08T09:55:33;18.20;99.90
7720;DHT22;3902;49.474;8.616;2023-10-08T09:57:59;18.20;99.90
7720;DHT22;3902;49.474;8.616;2023-10-08T10:00:26;18.20;99.90
7720;DHT22;3902;49.474;8.616;2023-10-08T10:02:58;18.20;99.90
7720;DHT22;3902;49.474;8.616;2023-10-08T10:05:30;18.30;99.90
7720;DHT22;3902;49.474;8.616;2023-10-08T10:07:56;18.30;99.90
7720;DHT22;3902;49.474;8.616;2023-10-08T10:10:30;18.50;99.90
7720;DHT22;3902;49.474;8.616;2023-10-08T10:12:58;18.60;99.90
7720;DHT22;3902;49.474;8.616;2023-10-08T10:15:25;18.70;99.90
7720;DHT22;3902;49.474;8.616;2023-10-08T10:17:51;18.80;99.90
7720;DHT22;3902;49.474;8.616;2023-10-08T10:20:16;18.90;99.90
7720;DHT22;3902;49.474;8.616;2023-10-08T10:22:43;19.00;99.90
7720;DHT22;3902;49.474;8.616;2023-10-08T10:25:09;19.10;99.90
7720;DHT22;3902;49.474;8.616;2023-10-08T10:30:32;19.30;99.90
7720;DHT22;3902;49.474;8.616;2023-10-08T10:33:00;19.30;99.90
7720;DHT22;3902;49.474;8.616;2023-10-08T10:35:26;19.40;99.90
7720;DHT22;3902;49.474;8.616;2023-10-08T10:37:53;19.40;99.90
7720;DHT22;3902;49.474;8.616;2023-10-08T10:40:21;19.50;99.90
7720;DHT22;3902;49.474;8.616;2023-10-08T10:42:57;19.70;99.90
7720;DHT22;3902;49.474;8.616;2023-10-08T10:45:23;19.80;99.90
7720;DHT22;3902;49.474;8.616;2023-10-08T10:48:05;20.20;99.90
7720;DHT22;3902;49.474;8.616;2023-10-08T10:50:56;20.70;99.90
7720;DHT22;3902;49.474;8.616;2023-10-08T10:53:40;21.10;99.90
7720;DHT22;3902;49.474;8.616;2023-10-08T10:56:26;21.60;99.90
7720;DHT22;3902;49.474;8.616;2023-10-08T10:59:12;21.80;99.90
7720;DHT22;3902;49.474;8.616;2023-10-08T11:02:07;22.00;99.90
7720;DHT22;3902;49.474;8.616;2023-10-08T11:04:51;22.30;99.90
7720;DHT22;3902;49.474;8.616;2023-10-08T11:07:20;22.30;99.90
7720;DHT22;3902;49.474;8.616;2023-10-08T11:09:49;22.20;99.90
7720;DHT22;3902;49.474;8.616;2023-10-08T11:12:18;22.40;99.90
7720;DHT22;3902;49.474;8.616;2023-10-08T11:14:48;22.50;99.90
7720;DHT22;3902;49.474;8.616;2023-10-08T11:17:23;22.40;99.90
7720;DHT22;3902;49.474;8.616;2023-10-08T11:19:49;22.50;99.90
7720;DHT22;3902;49.474;8.616;2023-10-08T11:22:16;22.70;99.90
7720;DHT22;3902;49.474;8.616;2023-10-08T11:24:43;22.90;99.90
7720;DHT22;3902;49.474;8.616;2023-10-08T11:27:13;23.10;99.90
7720;DHT22;3902;49.474;8.616;2023-10-08T11:29:49;23.40;99.90
7720;DHT22;3902;49.474;8.616;2023-10-08T11:32:22;23.80;99.90
7720;DHT22;3902;49.474;8.616;2023-10-08T11:35:00;24.50;99.90
7720;DHT22;3902;49.474;8.616;2023-10-08T11:37:27;25.30;99.90
7720;DHT22;3902;49.474;8.616;2023-10-08T11:39:53;26.20;99.90
7720;DHT22;3902;49.474;8.616;2023-10-08T11:42:23;27.10;99.90
7720;DHT22;3902;49.474;8.616;2023-10-08T11:45:06;28.00;99.90
7720;DHT22;3902;49.474;8.616;2023-10-08T11:47:45;28.90;99.90
7720;DHT22;3902;49.474;8.616;2023-10-08T11:50:11;29.50;99.90
7720;DHT22;3902;49.474;8.616;2023-10-08T11:52:45;30.10;99.90
7720;DHT22;3902;49.474;8.616;2023-10-08T11:55:11;30.70;99.90
7720;DHT22;3902;49.474;8.616;2023-10-08T11:57:47;31.00;97.40
7720;DHT22;3902;49.474;8.616;2023-10-08T12:00:15;30.60;96.80
7720;DHT22;3902;49.474;8.616;2023-10-08T12:02:53;30.60;95.70
7720;DHT22;3902;49.474;8.616;2023-10-08T12:05:20;31.00;96.80
7720;DHT22;3902;49.474;8.616;2023-10-08T12:07:49;31.40;95.90
7720;DHT22;3902;49.474;8.616;2023-10-08T12:10:16;31.80;95.10
7720;DHT22;3902;49.474;8.616;2023-10-08T12:12:53;32.10;93.80
7720;DHT22;3902;49.474;8.616;2023-10-08T12:15:20;32.50;93.50
7720;DHT22;3902;49.474;8.616;2023-10-08T12:17:49;32.80;92.80
7720;DHT22;3902;49.474;8.616;2023-10-08T12:20:37;33.10;91.40
7720;DHT22;3902;49.474;8.616;2023-10-08T12:23:06;33.20;91.40
7720;DHT22;3902;49.474;8.616;2023-10-08T12:25:36;33.50;91.20
7720;DHT22;3902;49.474;8.616;2023-10-08T12:28:03;33.60;90.70
7720;DHT22;3902;49.474;8.616;2023-10-08T12:30:30;33.80;90.60
7720;DHT22;3902;49.474;8.616;2023-10-08T12:32:59;34.10;88.50
7720;DHT22;3902;49.474;8.616;2023-10-08T12:35:26;34.20;88.30
7720;DHT22;3902;49.474;8.616;2023-10-08T12:37:52;34.50;85.50
7720;DHT22;3902;49.474;8.616;2023-10-08T12:40:19;34.70;84.90
7720;DHT22;3902;49.474;8.616;2023-10-08T12:42:49;34.90;83.70
7720;DHT22;3902;49.474;8.616;2023-10-08T12:45:15;35.00;82.60
7720;DHT22;3902;49.474;8.616;2023-10-08T12:47:47;35.10;82.80
7720;DHT22;3902;49.474;8.616;2023-10-08T12:50:12;35.10;81.80
7720;DHT22;3902;49.474;8.616;2023-10-08T12:52:44;35.30;81.70
7720;DHT22;3902;49.474;8.616;2023-10-08T12:55:19;35.30;78.40
7720;DHT22;3902;49.474;8.616;2023-10-08T12:57:52;35.30;78.10
7720;DHT22;3902;49.474;8.616;2023-10-08T13:00:24;35.30;78.20
7720;DHT22;3902;49.474;8.616;2023-10-08T13:02:51;34.90;77.90
7720;DHT22;3902;49.474;8.616;2023-10-08T13:05:21;35.20;78.10
7720;DHT22;3902;49.474;8.616;2023-10-08T13:07:56;35.20;77.90
7720;DHT22;3902;49.474;8.616;2023-10-08T13:10:25;35.20;75.80
7720;DHT22;3902;49.474;8.616;2023-10-08T13:12:51;35.10;75.40
7720;DHT22;3902;49.474;8.616;2023-10-08T13:15:17;35.30;77.20
7720;DHT22;3902;49.474;8.616;2023-10-08T13:17:43;35.20;76.20
7720;DHT22;3902;49.474;8.616;2023-10-08T13:20:11;35.10;75.40
7720;DHT22;3902;49.474;8.616;2023-10-08T13:22:38;35.00;76.80
7720;DHT22;3902;49.474;8.616;2023-10-08T13:25:04;35.00;75.50
7720;DHT22;3902;49.474;8.616;2023-10-08T13:27:30;34.80;76.10
7720;DHT22;3902;49.474;8.616;2023-10-08T13:29:56;34.90;76.40
7720;DHT22;3902;49.474;8.616;2023-10-08T13:32:21;35.10;75.90
7720;DHT22;3902;49.474;8.616;2023-10-08T13:34:47;34.90;73.50
7720;DHT22;3902;49.474;8.616;2023-10-08T13:37:13;34.70;74.60
7720;DHT22;3902;49.474;8.616;2023-10-08T13:39:41;34.80;75.20
7720;DHT22;3902;49.474;8.616;2023-10-08T13:42:06;34.70;74.80
7720;DHT22;3902;49.474;8.616;2023-10-08T13:44:32;34.50;76.10
7720;DHT22;3902;49.474;8.616;2023-10-08T13:46:58;34.40;75.00
7720;DHT22;3902;49.474;8.616;2023-10-08T13:49:25;34.40;74.40
7720;DHT22;3902;49.474;8.616;2023-10-08T13:51:52;33.90;75.80
7720;DHT22;3902;49.474;8.616;2023-10-08T13:54:24;33.80;75.20
7720;DHT22;3902;49.474;8.616;2023-10-08T13:57:01;33.60;76.80
7720;DHT22;3902;49.474;8.616;2023-10-08T13:59:27;33.40;76.70
7720;DHT22;3902;49.474;8.616;2023-10-08T14:01:56;33.20;77.80
7720;DHT22;3902;49.474;8.616;2023-10-08T14:04:22;32.80;77.80
7720;DHT22;3902;49.474;8.616;2023-10-08T14:06:51;32.50;78.70
7720;DHT22;3902;49.474;8.616;2023-10-08T14:09:21;32.30;79.20
7720;DHT22;3902;49.474;8.616;2023-10-08T14:12:07;31.90;78.70
7720;DHT22;3902;49.474;8.616;2023-10-08T14:14:33;31.50;80.80
7720;DHT22;3902;49.474;8.616;2023-10-08T14:17:00;31.30;81.70
7720;DHT22;3902;49.474;8.616;2023-10-08T14:19:31;31.00;82.30
7720;DHT22;3902;49.474;8.616;2023-10-08T14:22:13;30.70;82.70
7720;DHT22;3902;49.474;8.616;2023-10-08T14:24:42;30.20;84.00
7720;DHT22;3902;49.474;8.616;2023-10-08T14:27:10;29.80;87.50
7720;DHT22;3902;49.474;8.616;2023-10-08T14:29:39;29.40;88.20
7720;DHT22;3902;49.474;8.616;2023-10-08T14:32:15;29.20;89.80
7720;DHT22;3902;49.474;8.616;2023-10-08T14:34:41;28.80;90.30
7720;DHT22;3902;49.474;8.616;2023-10-08T14:37:12;28.60;90.80
7720;DHT22;3902;49.474;8.616;2023-10-08T14:39:56;28.30;90.60
7720;DHT22;3902;49.474;8.616;2023-10-08T14:42:40;28.10;90.50
7720;DHT22;3902;49.474;8.616;2023-10-08T14:45:23;27.80;91.00
7720;DHT22;3902;49.474;8.616;2023-10-08T14:47:54;27.70;91.30
7720;DHT22;3902;49.474;8.616;2023-10-08T14:50:21;27.40;91.30
7720;DHT22;3902;49.474;8.616;2023-10-08T14:52:48;27.30;92.00
7720;DHT22;3902;49.474;8.616;2023-10-08T14:55:14;27.20;92.20
7720;DHT22;3902;49.474;8.616;2023-10-08T14:57:41;27.00;92.40
7720;DHT22;3902;49.474;8.616;2023-10-08T15:00:08;27.00;92.80
7720;DHT22;3902;49.474;8.616;2023-10-08T15:02:34;26.90;92.80
7720;DHT22;3902;49.474;8.616;2023-10-08T15:05:00;26.90;93.20
7720;DHT22;3902;49.474;8.616;2023-10-08T15:07:27;26.80;92.90
7720;DHT22;3902;49.474;8.616;2023-10-08T15:09:53;26.80;93.10
7720;DHT22;3902;49.474;8.616;2023-10-08T15:12:23;26.80;93.20
7720;DHT22;3902;49.474;8.616;2023-10-08T15:14:53;26.70;93.10
7720;DHT22;3902;49.474;8.616;2023-10-08T15:17:19;26.70;93.20
7720;DHT22;3902;49.474;8.616;2023-10-08T15:19:44;26.60;93.40
7720;DHT22;3902;49.474;8.616;2023-10-08T15:22:12;26.50;93.40
7720;DHT22;3902;49.474;8.616;2023-10-08T15:24:37;26.40;93.60
7720;DHT22;3902;49.474;8.616;2023-10-08T15:27:05;26.30;94.10
7720;DHT22;3902;49.474;8.616;2023-10-08T15:29:31;26.20;94.00
7720;DHT22;3902;49.474;8.616;2023-10-08T15:31:58;26.10;94.30
7720;DHT22;3902;49.474;8.616;2023-10-08T15:34:24;26.00;94.70
7720;DHT22;3902;49.474;8.616;2023-10-08T15:36:52;25.90;95.20
7720;DHT22;3902;49.474;8.616;2023-10-08T15:39:18;25.80;95.80
7720;DHT22;3902;49.474;8.616;2023-10-08T15:41:50;25.70;96.20
7720;DHT22;3902;49.474;8.616;2023-10-08T15:44:16;25.60;96.30
7720;DHT22;3902;49.474;8.616;2023-10-08T15:46:44;25.50;96.50
7720;DHT22;3902;49.474;8.616;2023-10-08T15:49:09;25.40;96.80
7720;DHT22;3902;49.474;8.616;2023-10-08T15:51:35;25.30;97.10
7720;DHT22;3902;49.474;8.616;2023-10-08T15:54:02;25.20;97.70
7720;DHT22;3902;49.474;8.616;2023-10-08T15:56:29;25.10;97.80
7720;DHT22;3902;49.474;8.616;2023-10-08T15:58:54;25.10;98.20
7720;DHT22;3902;49.474;8.616;2023-10-08T16:01:21;25.00;98.40
7720;DHT22;3902;49.474;8.616;2023-10-08T16:03:47;24.90;98.60
7720;DHT22;3902;49.474;8.616;2023-10-08T16:06:12;24.80;98.70
7720;DHT22;3902;49.474;8.616;2023-10-08T16:08:38;24.70;98.80
7720;DHT22;3902;49.474;8.616;2023-10-08T16:11:03;24.70;99.50
7720;DHT22;3902;49.474;8.616;2023-10-08T16:13:29;24.60;99.50
7720;DHT22;3902;49.474;8.616;2023-10-08T16:15:54;24.50;99.80
7720;DHT22;3902;49.474;8.616;2023-10-08T16:18:20;24.40;99.90
7720;DHT22;3902;49.474;8.616;2023-10-08T16:20:46;24.40;99.90
7720;DHT22;3902;49.474;8.616;2023-10-08T16:23:13;24.30;99.90
7720;DHT22;3902;49.474;8.616;2023-10-08T16:25:39;24.30;99.90
7720;DHT22;3902;49.474;8.616;2023-10-08T16:28:05;24.20;99.90
7720;DHT22;3902;49.474;8.616;2023-10-08T16:30:30;24.10;99.90